Continental, OH (45837)

12:09 PM EDT on August 21, 2014 (GMT -0400)
Dan Halter farm | Change Station
CLOSE
Current Station
Personal Weather Station
Location: Oakwood, OH
Elevation: 702 ft
Nearby Weather Stations

Elev 702 ft 41.11 °N, 84.40 °W | Updated 13 minutes ago

Mostly Cloudy
Mostly Cloudy
74.3 °F
Feels Like 73 °F
N
1.0
Wind Variable Wind from SW
Gusts 7.0 mph

Today
High -- | Low -- °F
--% Chance of Precip.
Yesterday
High -- | Low -- °F
Precip. -- in
6:52 AM 8:26 PM
Waning Crescent, 13% visible
Pressure 30.02 in
Visibility 10.0 miles
Clouds Mostly Cloudy 3500 ft
Heat Index 73 °F
Dew Point 72 °F
Humidity 91%
Rainfall 0.05 in
Snow Depth Not available.
UV 4 out of 12
Pollen 9.00 out of 12
Air Quality Not available.
Flu Activity Not available.
METAR KDFI 211553Z AUTO 23006KT 10SM BKN035 25/20 A3003 RMK AO2 LTG DSNT S SLP164 T02500200

More Conditions Fewer Conditions

Pressure 30.02 in
Visibility 10.0 miles
Clouds Mostly Cloudy 3500 ft
Heat Index 73 °F
Dew Point 72 °F
Humidity 91%
Rainfall 0.05 in
Snow Depth Not available.
UV 4 out of 12
Pollen 9.00 out of 12
Air Quality Not available.
Flu Activity Not available.
METAR KDFI 211553Z AUTO 23006KT 10SM BKN035 25/20 A3003 RMK AO2 LTG DSNT S SLP164 T02500200

More Conditions Fewer Conditions

10-Day Weather Forecast

Almanac

Astronomy

Aug. 21, 2014 Rise Set
Actual Time 6:52 AM EDT 8:26 PM EDT
Civil Twilight 6:23 AM EDT 8:55 PM EDT
Nautical Twilight 5:48 AM EDT 9:30 PM EDT
Astronomical Twilight 5:11 AM EDT 10:08 PM EDT
Moon 3:21 AM EDT 5:55 PM EDT
Length of Visible Light 14h 32m
Length of Day
13h 34m
Tomorrow will be 2m 31s shorter.
Waning Crescent, 13% of the Moon is Illuminated
Today
Waning Crescent
Aug 25
New
Sep 2
First Quarter
Sep 8
Full
Sep 15
Last Quarter

Today's Extremes

State Highs State Lows

Community

WunderPhotos

Upload Photos

1,745,950 photos uploaded!

Nearby

Snow Depth

Station Depth Elevation
No new snow has been reported.

Earthquake Activity

City Distance Mag. Time & Date
No recent earthquake activity has been reported nearby.
Minimum magnitude displayed is 2.5.

Coastal Water Temperatures

Place Temperature
No Stations Reporting

Nearby Weather Stations